Time;durP1;ratioP1;P1;durP2;ratioP2;P2;SDS_P1;SDS_P2;PMS_P1;PMS_P2;Temp;Humidity;BMP_temperature;BMP_pressure;BME280_temperature;BME280_humidity;BME280_pressure;Samples;Min_cycle;Max_cycle;Signal;HPM_P1;HPM_P2
2023/08/11 00:01:38;;;;;;;7.00;5.07;;;17.50;99.90;;;;;;4999837;28;20048;-75
2023/08/11 00:04:06;;;;;;;6.22;4.10;;;17.50;99.90;;;;;;5031355;28;20059;-76
2023/08/11 00:06:32;;;;;;;3.97;2.60;;;17.50;99.90;;;;;;5012969;28;20488;-77
2023/08/11 00:08:59;;;;;;;2.90;2.17;;;17.40;99.90;;;;;;5027155;28;20033;-73
2023/08/11 00:11:26;;;;;;;2.40;1.55;;;17.40;99.90;;;;;;5027464;28;20028;-75
2023/08/11 00:13:52;;;;;;;1.88;1.20;;;17.40;99.90;;;;;;5020248;28;20257;-74
2023/08/11 00:16:19;;;;;;;2.15;1.15;;;17.40;99.90;;;;;;5030331;28;20434;-74
2023/08/11 00:18:46;;;;;;;2.50;1.42;;;17.30;99.90;;;;;;5043076;28;20040;-74
2023/08/11 00:21:12;;;;;;;2.22;1.30;;;17.30;99.90;;;;;;4998356;28;20415;-75
2023/08/11 00:23:42;;;;;;;2.85;1.42;;;17.30;99.90;;;;;;5014366;28;20043;-73
2023/08/11 00:26:08;;;;;;;1.90;1.35;;;17.30;99.90;;;;;;5012589;28;20037;-75
2023/08/11 00:28:34;;;;;;;4.28;1.48;;;17.20;99.90;;;;;;4997694;28;20047;-73
2023/08/11 00:31:01;;;;;;;2.00;1.27;;;17.20;99.90;;;;;;5011986;28;20036;-75
2023/08/11 00:33:28;;;;;;;1.77;1.13;;;17.20;99.90;;;;;;5021747;28;20025;-73
2023/08/11 00:35:55;;;;;;;1.90;1.33;;;17.20;99.90;;;;;;5012384;28;20048;-75
2023/08/11 00:38:23;;;;;;;2.30;1.20;;;17.10;99.90;;;;;;5031744;28;20040;-73
2023/08/11 00:40:51;;;;;;;2.10;1.45;;;17.10;99.90;;;;;;4998632;28;20427;-74
2023/08/11 00:43:18;;;;;;;2.05;1.30;;;17.10;99.90;;;;;;5011245;28;20446;-74
2023/08/11 00:45:49;;;;;;;2.60;1.30;;;17.10;99.90;;;;;;5015288;28;20044;-72
2023/08/11 00:48:15;;;;;;;1.58;1.25;;;17.10;99.90;;;;;;5027883;28;20288;-75
2023/08/11 00:50:42;;;;;;;2.78;1.02;;;17.00;99.90;;;;;;5031132;28;20044;-73
2023/08/11 00:53:09;;;;;;;2.67;1.55;;;17.00;99.90;;;;;;5036494;28;20503;-74
2023/08/11 00:55:36;;;;;;;2.53;1.17;;;17.00;99.90;;;;;;5035630;28;20033;-73
2023/08/11 00:58:05;;;;;;;1.98;1.40;;;17.00;99.90;;;;;;5036663;28;20403;-74
2023/08/11 01:00:31;;;;;;;3.13;1.45;;;16.90;99.90;;;;;;5022514;28;20036;-72
2023/08/11 01:02:58;;;;;;;2.55;1.60;;;16.90;99.90;;;;;;5036286;28;20506;-75
2023/08/11 01:05:26;;;;;;;2.15;1.95;;;16.90;99.90;;;;;;4992774;28;20047;-73
2023/08/11 01:08:15;;;;;;;1.80;1.05;;;16.90;99.90;;;;;;5018377;28;20036;-75
2023/08/11 01:10:51;;;;;;;1.80;1.30;;;16.90;99.90;;;;;;5035563;28;20049;-74
2023/08/11 01:13:23;;;;;;;2.00;1.45;;;16.90;99.90;;;;;;5033482;28;20044;-75
2023/08/11 01:15:58;;;;;;;2.22;1.33;;;16.80;99.90;;;;;;5035206;28;20403;-75
2023/08/11 01:18:26;;;;;;;4.45;1.70;;;16.80;99.90;;;;;;5036445;28;20033;-73
2023/08/11 01:20:59;;;;;;;3.10;1.30;;;16.80;99.90;;;;;;5033589;28;20039;-74
2023/08/11 01:23:25;;;;;;;3.00;1.73;;;16.80;99.90;;;;;;5034879;28;20417;-74
2023/08/11 01:25:53;;;;;;;3.53;1.33;;;16.80;99.90;;;;;;5034262;28;20041;-72
2023/08/11 01:28:19;;;;;;;2.83;1.83;;;16.80;99.90;;;;;;5015719;28;20057;-74
2023/08/11 01:30:47;;;;;;;2.10;1.50;;;16.70;99.90;;;;;;5001500;28;20033;-75
2023/08/11 01:33:14;;;;;;;2.63;1.63;;;16.70;99.90;;;;;;5011886;28;20500;-74
2023/08/11 01:35:41;;;;;;;1.92;1.40;;;16.70;99.90;;;;;;5032787;28;20515;-74
2023/08/11 01:38:09;;;;;;;2.60;1.60;;;16.70;99.90;;;;;;5036201;28;20037;-74
2023/08/11 01:40:35;;;;;;;2.03;1.38;;;16.70;99.90;;;;;;5018145;28;20041;-74
2023/08/11 01:43:05;;;;;;;1.90;1.50;;;16.60;99.90;;;;;;5018966;28;20045;-75
2023/08/11 01:45:31;;;;;;;1.70;1.08;;;16.70;99.90;;;;;;5033678;28;20037;-74
2023/08/11 01:47:59;;;;;;;2.20;1.70;;;16.60;99.90;;;;;;5033796;28;20048;-74
2023/08/11 01:50:28;;;;;;;2.33;1.38;;;16.60;99.90;;;;;;5016357;28;20045;-74
2023/08/11 01:52:56;;;;;;;2.70;1.50;;;16.60;99.90;;;;;;5019381;28;20029;-75
2023/08/11 01:55:24;;;;;;;2.13;1.65;;;16.50;99.90;;;;;;5000338;28;20037;-75
2023/08/11 01:57:52;;;;;;;1.98;1.27;;;16.50;99.90;;;;;;5033094;28;20029;-75
2023/08/11 02:00:20;;;;;;;2.38;1.42;;;16.50;99.90;;;;;;5003552;28;20032;-74
2023/08/11 02:02:47;;;;;;;2.22;1.67;;;16.50;99.90;;;;;;5026755;28;20033;-76
2023/08/11 02:05:17;;;;;;;2.15;1.90;;;16.50;99.90;;;;;;4998219;28;20554;-75
2023/08/11 02:07:45;;;;;;;1.67;1.27;;;16.50;99.90;;;;;;5032558;28;20040;-74
2023/08/11 02:10:12;;;;;;;1.83;1.38;;;16.50;99.90;;;;;;5032590;28;20041;-75
2023/08/11 02:12:39;;;;;;;1.75;1.02;;;16.40;99.90;;;;;;5032393;28;20032;-74
2023/08/11 02:15:07;;;;;;;2.47;1.60;;;16.50;99.90;;;;;;5015713;28;20503;-75
2023/08/11 02:17:34;;;;;;;1.90;1.40;;;16.40;99.90;;;;;;5032615;28;20491;-74
2023/08/11 02:20:12;;;;;;;2.03;1.33;;;16.50;99.90;;;;;;5035120;28;20037;-75
2023/08/11 02:22:39;;;;;;;2.22;1.38;;;16.40;99.90;;;;;;5044125;28;20472;-75
2023/08/11 02:25:05;;;;;;;3.20;1.38;;;16.40;99.90;;;;;;5015186;28;20044;-74
2023/08/11 02:27:32;;;;;;;2.17;1.67;;;16.40;99.90;;;;;;5032725;28;20052;-73
2023/08/11 02:29:58;;;;;;;3.75;1.92;;;16.40;99.90;;;;;;5032187;28;20033;-74
2023/08/11 02:32:25;;;;;;;2.08;1.55;;;16.40;99.90;;;;;;5032471;28;20044;-75
2023/08/11 02:34:51;;;;;;;2.60;1.98;;;16.40;99.90;;;;;;5031942;28;20037;-74
2023/08/11 02:37:19;;;;;;;2.50;1.60;;;16.40;99.90;;;;;;5031069;28;20052;-74
2023/08/11 02:39:45;;;;;;;2.83;1.92;;;16.30;99.90;;;;;;5015329;28;20033;-73
2023/08/11 02:42:12;;;;;;;2.92;1.95;;;16.30;99.90;;;;;;5016540;28;20033;-74
2023/08/11 02:44:38;;;;;;;3.60;2.85;;;16.30;99.90;;;;;;5032558;28;20040;-75
2023/08/11 02:47:05;;;;;;;2.72;2.03;;;16.30;99.90;;;;;;4999667;28;20033;-73
2023/08/11 02:49:32;;;;;;;3.10;1.92;;;16.30;99.90;;;;;;4999494;28;20052;-74
2023/08/11 02:51:58;;;;;;;2.50;1.77;;;16.30;99.90;;;;;;5016002;28;20041;-75
2023/08/11 02:54:25;;;;;;;2.83;2.17;;;16.30;99.90;;;;;;5032968;28;20496;-75
2023/08/11 02:56:51;;;;;;;4.00;2.10;;;16.30;99.90;;;;;;5032322;28;20045;-73
2023/08/11 02:59:18;;;;;;;2.80;2.08;;;16.30;99.90;;;;;;5001179;28;20041;-74
2023/08/11 03:01:44;;;;;;;2.40;1.83;;;16.30;99.90;;;;;;4998647;28;20477;-75
2023/08/11 03:04:11;;;;;;;2.25;1.52;;;16.20;99.90;;;;;;5016694;28;20021;-75
2023/08/11 03:06:37;;;;;;;3.50;2.55;;;16.20;99.90;;;;;;5001750;28;20037;-74
2023/08/11 03:09:03;;;;;;;4.15;2.47;;;16.20;99.90;;;;;;5015621;28;20037;-73
2023/08/11 03:11:30;;;;;;;2.80;2.25;;;16.20;99.90;;;;;;5030296;28;20032;-74
2023/08/11 03:13:57;;;;;;;2.55;2.28;;;16.20;99.90;;;;;;5017751;28;20468;-75
2023/08/11 03:16:25;;;;;;;2.70;2.00;;;16.20;99.90;;;;;;5014092;28;20060;-74
2023/08/11 03:18:52;;;;;;;3.83;2.45;;;16.20;99.90;;;;;;5014660;28;20047;-74
2023/08/11 03:21:19;;;;;;;3.67;2.60;;;16.10;99.90;;;;;;5032806;28;20068;-75
2023/08/11 03:23:45;;;;;;;2.92;2.40;;;16.20;99.90;;;;;;5018865;28;20040;-75
2023/08/11 03:26:13;;;;;;;3.47;2.42;;;16.10;99.90;;;;;;5014939;28;20495;-74
2023/08/11 03:28:41;;;;;;;3.15;2.75;;;16.10;99.90;;;;;;4999723;28;20044;-74
2023/08/11 03:31:08;;;;;;;3.22;2.35;;;16.10;99.90;;;;;;5015929;28;20037;-74
2023/08/11 03:33:39;;;;;;;3.92;2.78;;;16.00;99.90;;;;;;5030609;28;20044;-74
2023/08/11 03:36:10;;;;;;;2.85;2.33;;;16.10;99.90;;;;;;5033154;28;20021;-74
2023/08/11 03:38:37;;;;;;;3.38;2.90;;;16.00;99.90;;;;;;5016607;28;20261;-75
2023/08/11 03:41:04;;;;;;;3.58;2.72;;;16.00;99.90;;;;;;5015800;28;20487;-74
2023/08/11 03:43:30;;;;;;;3.47;2.55;;;16.00;99.90;;;;;;5034004;28;20029;-74
2023/08/11 03:45:57;;;;;;;3.65;2.20;;;16.00;99.90;;;;;;5014992;28;20388;-73
2023/08/11 03:48:23;;;;;;;3.25;2.90;;;16.00;99.90;;;;;;5014293;28;20041;-75
2023/08/11 03:50:50;;;;;;;3.00;2.67;;;15.90;99.90;;;;;;5031773;28;20041;-75
2023/08/11 03:53:16;;;;;;;3.15;2.85;;;16.00;99.90;;;;;;5032557;28;20028;-75
2023/08/11 03:55:45;;;;;;;3.75;3.25;;;15.90;99.90;;;;;;4997053;28;20041;-73
2023/08/11 03:58:15;;;;;;;2.92;2.55;;;15.90;99.90;;;;;;5015454;28;20032;-74
2023/08/11 04:00:43;;;;;;;2.92;2.42;;;15.90;99.90;;;;;;4994135;28;20037;-74
2023/08/11 04:03:13;;;;;;;3.22;2.58;;;15.90;99.90;;;;;;5008420;28;20037;-74
2023/08/11 04:05:39;;;;;;;7.28;3.13;;;15.90;99.90;;;;;;5017174;28;20029;-75
2023/08/11 04:08:06;;;;;;;4.35;3.38;;;15.90;99.90;;;;;;5030518;28;20472;-72
2023/08/11 04:10:37;;;;;;;3.42;3.13;;;15.90;99.90;;;;;;5030564;28;20033;-73
2023/08/11 04:13:04;;;;;;;3.97;3.00;;;15.80;99.90;;;;;;5031134;28;20409;-73
2023/08/11 04:15:33;;;;;;;3.17;2.88;;;15.80;99.90;;;;;;5031276;28;20036;-74
2023/08/11 04:18:00;;;;;;;3.95;3.10;;;15.80;99.90;;;;;;5021613;28;20343;-74
2023/08/11 04:20:28;;;;;;;5.25;3.33;;;15.80;99.90;;;;;;4998039;28;20049;-75
2023/08/11 04:22:55;;;;;;;3.92;3.03;;;15.80;99.90;;;;;;5031820;28;20037;-73
2023/08/11 04:25:22;;;;;;;3.45;2.78;;;15.80;99.90;;;;;;5032289;28;20029;-74
2023/08/11 04:27:49;;;;;;;3.50;3.20;;;15.80;99.90;;;;;;5015011;28;20024;-76
2023/08/11 04:30:17;;;;;;;3.90;2.60;;;15.80;99.90;;;;;;5013571;28;20052;-72
2023/08/11 04:32:48;;;;;;;3.38;2.40;;;15.80;99.90;;;;;;5031512;28;20029;-75
2023/08/11 04:35:15;;;;;;;3.03;2.60;;;15.80;99.90;;;;;;5028017;28;20226;-75
2023/08/11 04:37:41;;;;;;;3.60;2.97;;;15.80;99.90;;;;;;5012980;28;20376;-74
2023/08/11 04:40:13;;;;;;;4.55;3.50;;;15.80;99.90;;;;;;5012260;28;21411;-75
2023/08/11 04:42:41;;;;;;;3.47;3.15;;;15.90;99.90;;;;;;5016555;28;20025;-72
2023/08/11 04:45:09;;;;;;;4.63;2.78;;;15.90;99.90;;;;;;5015273;28;20033;-74
2023/08/11 04:47:37;;;;;;;3.92;3.13;;;15.90;99.90;;;;;;5032065;28;20048;-75
2023/08/11 04:50:08;;;;;;;3.95;3.45;;;15.90;99.90;;;;;;5024867;28;20632;-75
2023/08/11 04:52:34;;;;;;;3.80;3.17;;;16.00;99.90;;;;;;5013690;28;20033;-74
2023/08/11 04:55:03;;;;;;;3.80;3.28;;;16.00;99.90;;;;;;5017282;28;20045;-74
2023/08/11 04:57:30;;;;;;;3.83;3.20;;;16.10;99.90;;;;;;4993759;28;20051;-73
2023/08/11 04:59:59;;;;;;;4.32;3.53;;;16.20;99.90;;;;;;5001332;28;20672;-74
2023/08/11 05:02:26;;;;;;;3.85;3.50;;;16.20;99.90;;;;;;5028572;28;20409;-73
2023/08/11 05:04:52;;;;;;;4.70;3.63;;;16.30;99.90;;;;;;5029725;28;20039;-73
2023/08/11 05:07:19;;;;;;;3.97;3.17;;;16.40;99.90;;;;;;5015265;28;20032;-74
2023/08/11 05:09:45;;;;;;;4.05;3.65;;;16.60;99.90;;;;;;5013913;28;20503;-73
2023/08/11 05:12:12;;;;;;;4.47;3.78;;;16.70;99.90;;;;;;5046213;28;20034;-74
2023/08/11 05:14:38;;;;;;;5.80;4.15;;;16.80;99.90;;;;;;5029215;28;20044;-73
2023/08/11 05:17:05;;;;;;;4.28;3.85;;;16.90;99.90;;;;;;5010154;28;20038;-74
2023/08/11 05:19:31;;;;;;;3.83;3.42;;;16.90;99.90;;;;;;5029046;28;20037;-75
2023/08/11 05:21:58;;;;;;;3.65;3.33;;;16.90;99.90;;;;;;5030338;28;20460;-75
2023/08/11 05:24:24;;;;;;;4.32;3.50;;;16.90;99.90;;;;;;5030172;28;20479;-73
2023/08/11 05:26:51;;;;;;;4.95;4.25;;;16.90;99.90;;;;;;5014021;28;20037;-73
2023/08/11 05:29:17;;;;;;;6.18;4.25;;;16.90;99.90;;;;;;5033272;28;20033;-74
2023/08/11 05:31:43;;;;;;;4.07;3.55;;;17.00;99.90;;;;;;5028384;28;20742;-74
2023/08/11 05:34:09;;;;;;;4.68;4.10;;;17.00;99.90;;;;;;5010503;28;20036;-74
2023/08/11 05:36:36;;;;;;;5.10;4.18;;;17.10;99.90;;;;;;4989746;28;20388;-73
2023/08/11 05:39:03;;;;;;;5.68;4.30;;;17.20;99.90;;;;;;5033637;28;20044;-73
2023/08/11 05:41:30;;;;;;;3.10;2.80;;;17.20;99.90;;;;;;5007722;28;20037;-74
2023/08/11 05:43:56;;;;;;;4.07;3.45;;;17.30;99.90;;;;;;5016042;28;20037;-73
2023/08/11 05:46:23;;;;;;;4.00;3.63;;;17.40;99.90;;;;;;5028449;28;20043;-73
2023/08/11 05:48:51;;;;;;;4.20;3.70;;;17.50;99.90;;;;;;5036471;28;20032;-73
2023/08/11 05:51:17;;;;;;;4.00;3.45;;;17.60;99.90;;;;;;5032243;28;20044;-74
2023/08/11 05:53:44;;;;;;;4.32;3.67;;;17.80;99.90;;;;;;5016418;28;20041;-72
2023/08/11 05:56:10;;;;;;;4.40;3.70;;;17.90;99.90;;;;;;5017502;28;20033;-74
2023/08/11 05:58:37;;;;;;;4.88;4.35;;;18.10;99.90;;;;;;5033384;28;20025;-74
2023/08/11 06:01:03;;;;;;;4.70;3.80;;;18.30;99.90;;;;;;5032478;28;20416;-73
2023/08/11 06:03:30;;;;;;;4.45;4.03;;;18.50;99.90;;;;;;5032473;28;20036;-73
2023/08/11 06:06:06;;;;;;;4.00;3.60;;;18.60;99.90;;;;;;5031307;28;20485;-74
2023/08/11 06:08:34;;;;;;;5.22;4.72;;;18.70;99.90;;;;;;5034954;28;20502;-72
2023/08/11 06:11:00;;;;;;;6.72;4.60;;;18.90;99.90;;;;;;5009428;28;20041;-74
2023/08/11 06:13:27;;;;;;;5.80;5.13;;;19.00;99.90;;;;;;5000152;28;20041;-74
2023/08/11 06:15:54;;;;;;;5.75;4.80;;;19.10;99.90;;;;;;5031307;28;20040;-74
2023/08/11 06:18:20;;;;;;;6.30;4.38;;;19.20;99.90;;;;;;5035286;28;20049;-74
2023/08/11 06:20:47;;;;;;;5.60;4.88;;;19.40;99.90;;;;;;5031873;28;20045;-75
2023/08/11 06:23:13;;;;;;;4.20;3.80;;;19.50;99.90;;;;;;5017109;28;20174;-75
2023/08/11 06:25:40;;;;;;;4.57;3.67;;;19.70;99.90;;;;;;5010233;28;20032;-74
2023/08/11 06:28:07;;;;;;;7.35;5.35;;;19.80;99.90;;;;;;5034650;28;20044;-75
2023/08/11 06:30:33;;;;;;;5.10;4.30;;;19.90;99.90;;;;;;5004012;28;20036;-76
2023/08/11 06:33:00;;;;;;;5.47;3.97;;;20.00;99.90;;;;;;5020534;28;20848;-74
2023/08/11 06:35:26;;;;;;;4.95;4.38;;;20.20;99.90;;;;;;5032987;28;20052;-74
2023/08/11 06:37:53;;;;;;;7.03;4.38;;;20.50;99.90;;;;;;5032205;28;20329;-75
2023/08/11 06:40:19;;;;;;;5.60;4.05;;;20.70;99.90;;;;;;5031630;28;20036;-76
2023/08/11 06:42:46;;;;;;;4.43;3.72;;;20.90;99.90;;;;;;5015117;28;20040;-76
2023/08/11 06:45:14;;;;;;;4.90;3.15;;;21.10;99.90;;;;;;5030793;28;20052;-73
2023/08/11 06:47:41;;;;;;;4.90;4.05;;;21.30;99.90;;;;;;5017950;28;20037;-74
2023/08/11 06:50:08;;;;;;;5.45;3.30;;;21.50;99.90;;;;;;5016740;28;20056;-74
2023/08/11 06:52:34;;;;;;;4.75;3.33;;;21.80;99.90;;;;;;5031683;28;20033;-73
2023/08/11 06:55:00;;;;;;;3.63;3.30;;;22.00;99.90;;;;;;5020125;28;20045;-74
2023/08/11 06:57:27;;;;;;;6.65;4.40;;;22.20;99.90;;;;;;5032231;28;20041;-75
2023/08/11 06:59:53;;;;;;;5.07;4.43;;;22.30;99.90;;;;;;5018473;28;20033;-75
2023/08/11 07:02:20;;;;;;;5.35;3.65;;;22.40;99.90;;;;;;5017017;28;20029;-74
2023/08/11 07:04:46;;;;;;;6.57;4.93;;;22.40;99.90;;;;;;5016048;28;20671;-72
2023/08/11 07:07:13;;;;;;;6.53;3.88;;;22.50;99.90;;;;;;5015986;28;20550;-74
2023/08/11 07:09:39;;;;;;;5.50;4.40;;;22.60;99.90;;;;;;5035263;28;20041;-75
2023/08/11 07:12:06;;;;;;;5.68;3.97;;;22.70;99.90;;;;;;5015958;28;20052;-75
2023/08/11 07:14:32;;;;;;;6.22;5.30;;;22.80;99.90;;;;;;5007211;28;20375;-74
2023/08/11 07:16:59;;;;;;;7.47;4.78;;;22.90;99.90;;;;;;5030945;28;20053;-74
2023/08/11 07:19:25;;;;;;;4.78;3.72;;;22.90;99.90;;;;;;5014880;28;20036;-75
2023/08/11 07:21:52;;;;;;;4.47;3.25;;;23.00;99.90;;;;;;5028615;28;20037;-73
2023/08/11 07:24:18;;;;;;;4.20;3.00;;;23.00;99.90;;;;;;5030214;28;20036;-73
2023/08/11 07:26:45;;;;;;;6.70;3.42;;;23.00;99.90;;;;;;5031241;28;20044;-72
2023/08/11 07:29:11;;;;;;;5.45;3.97;;;23.00;99.90;;;;;;5031916;28;20032;-73
2023/08/11 07:31:39;;;;;;;7.00;4.22;;;23.00;99.90;;;;;;5033888;28;20759;-72
2023/08/11 07:34:05;;;;;;;3.58;2.83;;;23.10;99.90;;;;;;5033764;28;20030;-72
2023/08/11 07:36:32;;;;;;;4.07;3.08;;;23.20;99.90;;;;;;5033051;28;20020;-71
2023/08/11 07:38:58;;;;;;;6.53;3.45;;;23.30;99.90;;;;;;5029937;28;20060;-72
2023/08/11 07:41:25;;;;;;;6.88;3.85;;;23.40;99.90;;;;;;5033030;28;20033;-72
2023/08/11 07:43:51;;;;;;;4.45;2.50;;;23.40;99.90;;;;;;5032780;28;20029;-73
2023/08/11 07:46:17;;;;;;;6.70;3.80;;;23.50;99.90;;;;;;5034272;28;20036;-72
2023/08/11 07:48:44;;;;;;;4.75;2.60;;;23.60;99.90;;;;;;5029239;28;20451;-73
2023/08/11 07:51:10;;;;;;;6.35;4.05;;;23.60;99.90;;;;;;5026519;28;20044;-72
2023/08/11 07:53:38;;;;;;;5.13;2.60;;;23.70;99.90;;;;;;5003545;28;20207;-73
2023/08/11 07:56:04;;;;;;;3.33;2.97;;;23.80;99.90;;;;;;5033034;28;20037;-71
2023/08/11 07:58:32;;;;;;;4.93;3.08;;;23.90;99.90;;;;;;5015042;28;20048;-72
2023/08/11 08:00:58;;;;;;;4.35;2.83;;;24.00;99.90;;;;;;5015420;28;20482;-73
2023/08/11 08:03:25;;;;;;;3.65;2.53;;;24.10;99.90;;;;;;5028578;28;20032;-73
2023/08/11 08:05:51;;;;;;;5.80;3.55;;;24.10;99.90;;;;;;4998974;28;20037;-71
2023/08/11 08:08:17;;;;;;;3.50;2.38;;;24.20;99.90;;;;;;5012199;28;20075;-72
2023/08/11 08:10:44;;;;;;;3.85;2.70;;;24.20;99.90;;;;;;5033116;28;20044;-73
2023/08/11 08:13:10;;;;;;;4.80;2.97;;;24.30;99.90;;;;;;5031284;28;20028;-73
2023/08/11 08:15:37;;;;;;;4.60;3.10;;;24.40;99.90;;;;;;5014081;28;20037;-71
2023/08/11 08:18:04;;;;;;;4.28;2.35;;;24.50;99.90;;;;;;5015457;28;20529;-71
2023/08/11 08:20:32;;;;;;;4.60;2.53;;;24.60;99.90;;;;;;5030068;28;20081;-72
2023/08/11 08:22:59;;;;;;;3.47;2.08;;;24.70;99.90;;;;;;5028449;28;20025;-74
2023/08/11 08:25:26;;;;;;;3.75;1.50;;;24.90;99.90;;;;;;5026188;28;20035;-72
2023/08/11 08:27:52;;;;;;;3.38;1.88;;;25.10;99.90;;;;;;5016194;28;20037;-73
2023/08/11 08:30:19;;;;;;;5.32;2.28;;;25.20;99.90;;;;;;5029822;28;20373;-73
2023/08/11 08:32:46;;;;;;;4.22;2.83;;;25.30;99.90;;;;;;5032260;28;20043;-72
2023/08/11 08:35:12;;;;;;;3.40;2.33;;;25.50;99.90;;;;;;5030329;28;20040;-73
2023/08/11 08:37:38;;;;;;;3.50;1.85;;;25.50;99.90;;;;;;4992175;28;20032;-72
2023/08/11 08:40:08;;;;;;;3.25;1.80;;;25.60;99.90;;;;;;4992788;28;20025;-73
2023/08/11 08:42:34;;;;;;;3.83;2.00;;;25.70;99.90;;;;;;5013387;28;20048;-73
2023/08/11 08:45:01;;;;;;;4.53;1.88;;;25.80;99.90;;;;;;4998913;28;20036;-73
2023/08/11 08:47:28;;;;;;;4.45;2.28;;;25.90;99.90;;;;;;5030556;28;20040;-73
2023/08/11 08:49:57;;;;;;;5.38;3.55;;;26.00;99.90;;;;;;5033448;28;20040;-73
2023/08/11 08:52:24;;;;;;;3.47;2.20;;;26.10;99.90;;;;;;5015012;28;20498;-73
2023/08/11 08:54:51;;;;;;;2.00;1.58;;;26.20;99.90;;;;;;5014122;28;20494;-73
2023/08/11 08:57:20;;;;;;;2.67;1.80;;;26.30;99.90;;;;;;5029463;28;20486;-73
2023/08/11 08:59:47;;;;;;;3.15;1.98;;;26.40;99.90;;;;;;5028278;28;20038;-72
2023/08/11 09:02:13;;;;;;;3.65;1.98;;;26.60;99.90;;;;;;5013641;28;20349;-72
2023/08/11 09:04:40;;;;;;;4.25;2.17;;;26.70;99.90;;;;;;5030217;28;20400;-73
2023/08/11 09:07:07;;;;;;;2.30;1.42;;;26.80;99.90;;;;;;4996492;28;20032;-74
2023/08/11 09:09:33;;;;;;;2.95;1.80;;;26.90;99.90;;;;;;4994577;28;20037;-73
2023/08/11 09:12:00;;;;;;;2.30;1.90;;;27.10;99.90;;;;;;5015692;28;20040;-73
2023/08/11 09:14:27;;;;;;;5.30;1.70;;;27.20;99.90;;;;;;5034678;28;20052;-74
2023/08/11 09:16:54;;;;;;;3.80;2.35;;;27.30;99.90;;;;;;5018610;28;20029;-74
2023/08/11 09:19:20;;;;;;;3.10;1.35;;;27.40;99.90;;;;;;5034105;28;20379;-72
2023/08/11 09:21:47;;;;;;;3.97;2.20;;;27.50;99.90;;;;;;5034599;28;20387;-73
2023/08/11 09:24:14;;;;;;;2.25;1.27;;;27.50;99.90;;;;;;5031110;28;20025;-73
2023/08/11 09:26:44;;;;;;;5.15;3.50;;;27.70;99.90;;;;;;5032723;28;20293;-73
2023/08/11 09:29:12;;;;;;;3.72;2.03;;;27.70;99.90;;;;;;5016572;28;20059;-74
2023/08/11 09:31:41;;;;;;;2.65;1.50;;;27.70;99.90;;;;;;5016058;28;20025;-74
2023/08/11 09:34:18;;;;;;;2.38;1.50;;;27.80;99.90;;;;;;5013647;28;20043;-76
2023/08/11 09:36:46;;;;;;;2.65;2.00;;;28.00;99.90;;;;;;5008146;28;20040;-75
2023/08/11 09:39:13;;;;;;;4.13;2.10;;;28.10;99.90;;;;;;5013771;28;20068;-73
2023/08/11 09:41:45;;;;;;;2.28;1.67;;;28.10;99.90;;;;;;4997550;28;20038;-72
2023/08/11 09:44:14;;;;;;;2.58;1.58;;;28.20;99.90;;;;;;4996100;28;20028;-74
2023/08/11 09:46:42;;;;;;;2.65;1.90;;;28.30;99.90;;;;;;4998553;28;20040;-74
2023/08/11 09:49:09;;;;;;;6.22;2.25;;;28.40;99.90;;;;;;5005189;28;20472;-71
2023/08/11 09:51:37;;;;;;;3.35;2.25;;;28.60;99.90;;;;;;5006496;28;20696;-74
2023/08/11 09:54:06;;;;;;;4.75;2.35;;;28.70;99.90;;;;;;5023482;28;20032;-74
2023/08/11 09:56:35;;;;;;;2.80;1.58;;;29.00;99.90;;;;;;4999721;28;20040;-74
2023/08/11 09:59:17;;;;;;;2.40;1.88;;;29.30;99.90;;;;;;4985080;28;20375;-72
2023/08/11 10:01:45;;;;;;;;;;;29.50;99.90;;;;;;5014724;28;20033;-74
2023/08/11 10:04:38;;;;;;;2.70;1.73;;;29.60;99.90;;;;;;4998481;28;19924;-73
2023/08/11 10:07:11;;;;;;;3.70;2.08;;;29.60;99.90;;;;;;4993331;28;20411;-74
2023/08/11 10:09:39;;;;;;;2.17;1.35;;;29.60;99.90;;;;;;5014562;28;20503;-75
2023/08/11 10:12:07;;;;;;;2.50;1.70;;;29.70;99.90;;;;;;4991749;28;20029;-73
2023/08/11 10:14:36;;;;;;;2.42;1.17;;;29.90;99.90;;;;;;5012355;28;20037;-74
2023/08/11 10:17:03;;;;;;;2.65;1.70;;;30.20;99.90;;;;;;5015591;28;20539;-71
2023/08/11 10:19:30;;;;;;;4.32;1.40;;;30.50;99.90;;;;;;5002382;28;20684;-74
2023/08/11 10:21:57;;;;;;;3.20;1.38;;;30.80;99.90;;;;;;5015183;28;20848;-75
2023/08/11 10:24:25;;;;;;;5.60;1.60;;;30.90;99.20;;;;;;5039399;28;20036;-74
2023/08/11 10:26:51;;;;;;;4.65;1.38;;;30.90;98.50;;;;;;5023395;28;20033;-73
2023/08/11 10:29:18;;;;;;;1.92;1.05;;;30.80;98.10;;;;;;4990683;28;20052;-73
2023/08/11 10:31:58;;;;;;;1.85;1.10;;;30.70;98.20;;;;;;5016472;28;20114;-75
2023/08/11 10:34:25;;;;;;;2.45;1.55;;;30.90;98.20;;;;;;4994441;28;20037;-74
2023/08/11 10:36:57;;;;;;;2.55;1.50;;;31.10;97.60;;;;;;5010914;28;20036;-72
2023/08/11 10:39:24;;;;;;;1.80;1.10;;;31.40;97.50;;;;;;4993539;28;20372;-73
2023/08/11 10:41:51;;;;;;;4.05;1.63;;;31.70;96.80;;;;;;5011592;28;22524;-74
2023/08/11 10:44:26;;;;;;;2.42;1.40;;;31.70;95.60;;;;;;5010679;28;20056;-74
2023/08/11 10:46:53;;;;;;;2.08;1.50;;;31.60;95.40;;;;;;4994345;28;20048;-73
2023/08/11 10:49:32;;;;;;;2.70;1.48;;;31.60;94.90;;;;;;4993750;28;20604;-74
2023/08/11 10:52:01;;;;;;;4.13;0.90;;;31.70;94.30;;;;;;5012048;28;20437;-74
2023/08/11 10:54:27;;;;;;;2.13;1.10;;;31.90;94.60;;;;;;5017586;28;20036;-71
2023/08/11 10:56:54;;;;;;;6.63;4.07;;;32.20;94.20;;;;;;5002667;28;21450;-74
2023/08/11 10:59:25;;;;;;;4.32;2.38;;;32.40;93.50;;;;;;4998839;28;20060;-73
2023/08/11 11:01:53;;;;;;;;;;;32.60;92.90;;;;;;5008659;28;22853;-72
2023/08/11 11:04:22;;;;;;;3.22;1.30;;;32.90;92.70;;;;;;4991154;28;19909;-72
2023/08/11 11:06:53;;;;;;;2.17;1.27;;;33.20;92.20;;;;;;4992214;28;20033;-72
2023/08/11 11:09:20;;;;;;;1.97;1.10;;;33.50;91.80;;;;;;4990213;28;20045;-72
2023/08/11 11:11:47;;;;;;;2.20;1.25;;;33.80;91.40;;;;;;5007988;28;20036;-71
2023/08/11 11:14:14;;;;;;;3.20;1.30;;;34.20;90.80;;;;;;5008832;28;20036;-73
2023/08/11 11:16:40;;;;;;;2.25;1.38;;;34.60;90.30;;;;;;5017664;28;20455;-74
2023/08/11 11:19:08;;;;;;;3.35;1.00;;;34.80;88.70;;;;;;5019595;28;20040;-73
2023/08/11 11:21:38;;;;;;;3.20;1.23;;;35.10;88.00;;;;;;4999966;28;20029;-73
2023/08/11 11:24:05;;;;;;;2.95;1.27;;;35.50;86.90;;;;;;5007537;28;20040;-74
2023/08/11 11:26:32;;;;;;;4.07;1.10;;;35.80;84.70;;;;;;5007995;28;20700;-74
2023/08/11 11:29:00;;;;;;;1.55;0.60;;;36.10;83.30;;;;;;5006618;28;20029;-72
2023/08/11 11:31:31;;;;;;;2.85;0.80;;;36.40;81.40;;;;;;5006968;28;20045;-72
2023/08/11 11:33:58;;;;;;;7.93;1.25;;;36.60;80.40;;;;;;5009499;28;20060;-73
2023/08/11 11:36:25;;;;;;;2.10;0.90;;;36.90;79.00;;;;;;4996457;28;20037;-71
2023/08/11 11:38:51;;;;;;;1.95;1.35;;;37.20;77.10;;;;;;5000607;28;20033;-72
2023/08/11 11:41:19;;;;;;;2.20;1.80;;;37.30;76.80;;;;;;5013158;28;20229;-75
2023/08/11 11:43:48;;;;;;;2.83;2.33;;;37.50;75.90;;;;;;4975646;28;20045;-73
2023/08/11 11:46:16;;;;;;;3.22;1.20;;;37.70;74.60;;;;;;4973670;28;20037;-73
2023/08/11 11:48:52;;;;;;;1.70;0.82;;;37.90;73.60;;;;;;5002137;28;20392;-73
2023/08/11 11:51:22;;;;;;;3.70;1.20;;;38.20;72.10;;;;;;4991100;28;20224;-74
2023/08/11 11:53:51;;;;;;;5.03;1.30;;;38.30;70.80;;;;;;4969655;28;20479;-74
2023/08/11 11:56:18;;;;;;;3.45;1.10;;;38.30;69.80;;;;;;4995350;28;20033;-74
2023/08/11 11:58:46;;;;;;;3.45;1.00;;;38.40;69.40;;;;;;5015940;28;20022;-75
2023/08/11 12:01:20;;;;;;;2.40;0.90;;;38.60;68.90;;;;;;5000317;28;20529;-73
2023/08/11 12:03:50;;;;;;;2.47;1.10;;;38.80;68.70;;;;;;4990038;28;21655;-72
2023/08/11 12:06:18;;;;;;;4.32;1.02;;;39.00;67.90;;;;;;5009312;28;20371;-75
2023/08/11 12:08:48;;;;;;;2.35;0.93;;;39.40;67.20;;;;;;5007231;28;20021;-74
2023/08/11 12:11:20;;;;;;;1.77;0.90;;;39.50;65.50;;;;;;5000510;28;20334;-73
2023/08/11 12:13:46;;;;;;;2.80;1.23;;;39.50;64.90;;;;;;4968244;28;20037;-72
2023/08/11 12:16:13;;;;;;;1.30;0.80;;;39.50;65.10;;;;;;4985031;28;20040;-72
2023/08/11 12:18:41;;;;;;;3.88;0.80;;;39.80;64.50;;;;;;5019112;28;20292;-75
2023/08/11 12:21:09;;;;;;;2.85;0.80;;;40.00;63.80;;;;;;5007179;28;20056;-73
2023/08/11 12:23:35;;;;;;;3.15;1.58;;;40.20;63.10;;;;;;4996691;28;20660;-75
2023/08/11 12:26:02;;;;;;;3.13;0.90;;;40.30;62.20;;;;;;4989214;28;20039;-76
2023/08/11 12:28:28;;;;;;;11.30;10.20;;;40.50;62.50;;;;;;4994417;28;20463;-74
2023/08/11 12:30:55;;;;;;;5.05;3.88;;;40.80;62.40;;;;;;4991227;28;20056;-76
2023/08/11 12:33:22;;;;;;;4.82;3.83;;;41.00;61.80;;;;;;4991611;28;20041;-76
2023/08/11 12:35:48;;;;;;;2.85;1.67;;;41.30;60.80;;;;;;5005203;28;20644;-73
2023/08/11 12:38:20;;;;;;;2.30;1.70;;;41.40;60.20;;;;;;5007006;28;20029;-75
2023/08/11 12:40:48;;;;;;;4.68;1.00;;;41.50;59.50;;;;;;5017068;28;20045;-74
2023/08/11 12:43:15;;;;;;;3.45;0.95;;;41.50;59.20;;;;;;5002884;28;20033;-74
2023/08/11 12:45:44;;;;;;;3.35;0.95;;;41.40;58.60;;;;;;4997609;28;20033;-75
2023/08/11 12:48:11;;;;;;;3.60;0.88;;;41.40;57.70;;;;;;5012155;28;20044;-74
2023/08/11 12:50:38;;;;;;;3.75;0.90;;;41.50;57.90;;;;;;5012565;28;20075;-74